sensor_id;sensor_type;location;lat;lon;timestamp;temperature;humidity
11142;DHT22;5625;50.122;19.864;2024-01-25T00:02:05;6.20;99.90
11142;DHT22;5625;50.122;19.864;2024-01-25T00:04:36;6.20;99.90
11142;DHT22;5625;50.122;19.864;2024-01-25T00:07:08;6.20;99.90
11142;DHT22;5625;50.122;19.864;2024-01-25T00:09:36;6.20;99.90
11142;DHT22;5625;50.122;19.864;2024-01-25T00:12:05;6.20;99.90
11142;DHT22;5625;50.122;19.864;2024-01-25T00:14:34;6.20;99.90
11142;DHT22;5625;50.122;19.864;2024-01-25T00:17:04;6.20;99.90
11142;DHT22;5625;50.122;19.864;2024-01-25T00:19:33;6.20;99.90
11142;DHT22;5625;50.122;19.864;2024-01-25T00:22:03;6.20;99.90
11142;DHT22;5625;50.122;19.864;2024-01-25T00:24:32;6.20;99.90
11142;DHT22;5625;50.122;19.864;2024-01-25T00:27:01;6.20;99.90
11142;DHT22;5625;50.122;19.864;2024-01-25T00:29:30;6.10;99.90
11142;DHT22;5625;50.122;19.864;2024-01-25T00:31:59;6.10;99.90
11142;DHT22;5625;50.122;19.864;2024-01-25T00:34:27;6.10;99.90
11142;DHT22;5625;50.122;19.864;2024-01-25T00:36:56;6.10;99.90
11142;DHT22;5625;50.122;19.864;2024-01-25T00:39:27;6.10;99.90
11142;DHT22;5625;50.122;19.864;2024-01-25T00:42:01;6.00;99.90
11142;DHT22;5625;50.122;19.864;2024-01-25T00:44:31;6.00;99.90
11142;DHT22;5625;50.122;19.864;2024-01-25T00:47:01;6.00;99.90
11142;DHT22;5625;50.122;19.864;2024-01-25T00:49:29;6.00;99.90
11142;DHT22;5625;50.122;19.864;2024-01-25T00:51:59;6.00;99.90
11142;DHT22;5625;50.122;19.864;2024-01-25T00:54:29;6.00;99.90
11142;DHT22;5625;50.122;19.864;2024-01-25T00:56:58;6.00;99.90
11142;DHT22;5625;50.122;19.864;2024-01-25T00:59:27;6.00;99.90
11142;DHT22;5625;50.122;19.864;2024-01-25T01:01:58;6.00;99.90
11142;DHT22;5625;50.122;19.864;2024-01-25T01:04:29;5.90;99.90
11142;DHT22;5625;50.122;19.864;2024-01-25T01:07:17;5.90;99.90
11142;DHT22;5625;50.122;19.864;2024-01-25T01:09:50;5.90;99.90
11142;DHT22;5625;50.122;19.864;2024-01-25T01:12:18;5.90;99.90
11142;DHT22;5625;50.122;19.864;2024-01-25T01:14:47;5.90;99.90
11142;DHT22;5625;50.122;19.864;2024-01-25T01:17:18;5.90;99.90
11142;DHT22;5625;50.122;19.864;2024-01-25T01:19:46;5.80;99.90
11142;DHT22;5625;50.122;19.864;2024-01-25T01:22:16;5.90;99.90
11142;DHT22;5625;50.122;19.864;2024-01-25T01:24:44;5.80;99.90
11142;DHT22;5625;50.122;19.864;2024-01-25T01:27:14;5.80;99.90
11142;DHT22;5625;50.122;19.864;2024-01-25T01:29:42;5.90;99.90
11142;DHT22;5625;50.122;19.864;2024-01-25T01:32:12;5.90;99.90
11142;DHT22;5625;50.122;19.864;2024-01-25T01:34:40;5.90;99.90
11142;DHT22;5625;50.122;19.864;2024-01-25T01:37:09;5.90;99.90
11142;DHT22;5625;50.122;19.864;2024-01-25T01:39:37;5.90;99.90
11142;DHT22;5625;50.122;19.864;2024-01-25T01:42:05;5.90;99.90
11142;DHT22;5625;50.122;19.864;2024-01-25T01:44:35;6.00;99.90
11142;DHT22;5625;50.122;19.864;2024-01-25T01:47:03;6.00;99.90
11142;DHT22;5625;50.122;19.864;2024-01-25T01:49:31;6.00;99.90
11142;DHT22;5625;50.122;19.864;2024-01-25T01:52:00;6.00;99.90
11142;DHT22;5625;50.122;19.864;2024-01-25T01:54:28;6.00;99.90
11142;DHT22;5625;50.122;19.864;2024-01-25T01:56:57;6.00;99.90
11142;DHT22;5625;50.122;19.864;2024-01-25T01:59:25;6.00;99.90
11142;DHT22;5625;50.122;19.864;2024-01-25T02:01:54;6.00;99.90
11142;DHT22;5625;50.122;19.864;2024-01-25T02:04:22;6.10;99.90
11142;DHT22;5625;50.122;19.864;2024-01-25T02:06:50;6.10;99.90
11142;DHT22;5625;50.122;19.864;2024-01-25T02:09:19;6.10;99.90
11142;DHT22;5625;50.122;19.864;2024-01-25T02:11:47;6.10;99.90
11142;DHT22;5625;50.122;19.864;2024-01-25T02:14:15;6.10;99.90
11142;DHT22;5625;50.122;19.864;2024-01-25T02:16:43;6.10;99.90
11142;DHT22;5625;50.122;19.864;2024-01-25T02:19:15;6.10;99.90
11142;DHT22;5625;50.122;19.864;2024-01-25T02:21:43;6.10;99.90
11142;DHT22;5625;50.122;19.864;2024-01-25T02:24:12;6.10;99.90
11142;DHT22;5625;50.122;19.864;2024-01-25T02:26:41;6.10;99.90
11142;DHT22;5625;50.122;19.864;2024-01-25T02:29:09;6.10;99.90
11142;DHT22;5625;50.122;19.864;2024-01-25T02:31:37;6.10;99.90
11142;DHT22;5625;50.122;19.864;2024-01-25T02:34:05;6.00;99.90
11142;DHT22;5625;50.122;19.864;2024-01-25T02:36:34;6.10;99.90
11142;DHT22;5625;50.122;19.864;2024-01-25T02:39:02;6.00;99.90
11142;DHT22;5625;50.122;19.864;2024-01-25T02:41:32;6.00;99.90
11142;DHT22;5625;50.122;19.864;2024-01-25T02:44:01;6.00;99.90
11142;DHT22;5625;50.122;19.864;2024-01-25T02:46:29;6.00;99.90
11142;DHT22;5625;50.122;19.864;2024-01-25T02:48:57;6.00;99.90
11142;DHT22;5625;50.122;19.864;2024-01-25T02:51:26;6.00;99.90
11142;DHT22;5625;50.122;19.864;2024-01-25T02:53:54;6.00;99.90
11142;DHT22;5625;50.122;19.864;2024-01-25T02:56:22;6.00;99.90
11142;DHT22;5625;50.122;19.864;2024-01-25T02:58:51;6.00;99.90
11142;DHT22;5625;50.122;19.864;2024-01-25T03:01:20;6.00;99.90
11142;DHT22;5625;50.122;19.864;2024-01-25T03:03:48;6.00;99.90
11142;DHT22;5625;50.122;19.864;2024-01-25T03:06:16;6.00;99.90
11142;DHT22;5625;50.122;19.864;2024-01-25T03:08:44;6.00;99.90
11142;DHT22;5625;50.122;19.864;2024-01-25T03:11:12;6.00;99.90
11142;DHT22;5625;50.122;19.864;2024-01-25T03:13:40;6.00;99.90
11142;DHT22;5625;50.122;19.864;2024-01-25T03:16:10;6.00;99.90
11142;DHT22;5625;50.122;19.864;2024-01-25T03:18:38;6.00;99.90
11142;DHT22;5625;50.122;19.864;2024-01-25T03:21:07;6.00;99.90
11142;DHT22;5625;50.122;19.864;2024-01-25T03:23:35;6.00;99.90
11142;DHT22;5625;50.122;19.864;2024-01-25T03:26:03;6.00;99.90
11142;DHT22;5625;50.122;19.864;2024-01-25T03:28:31;6.00;99.90
11142;DHT22;5625;50.122;19.864;2024-01-25T03:31:01;6.00;99.90
11142;DHT22;5625;50.122;19.864;2024-01-25T03:33:31;6.00;99.90
11142;DHT22;5625;50.122;19.864;2024-01-25T03:36:01;6.00;99.90
11142;DHT22;5625;50.122;19.864;2024-01-25T03:38:30;5.90;99.90
11142;DHT22;5625;50.122;19.864;2024-01-25T03:40:58;5.90;99.90
11142;DHT22;5625;50.122;19.864;2024-01-25T03:43:26;5.90;99.90
11142;DHT22;5625;50.122;19.864;2024-01-25T03:46:08;5.90;99.90
11142;DHT22;5625;50.122;19.864;2024-01-25T03:48:38;5.80;99.90
11142;DHT22;5625;50.122;19.864;2024-01-25T03:51:06;5.80;99.90
11142;DHT22;5625;50.122;19.864;2024-01-25T03:53:34;5.70;99.90
11142;DHT22;5625;50.122;19.864;2024-01-25T03:56:02;5.70;99.90
11142;DHT22;5625;50.122;19.864;2024-01-25T03:58:30;5.60;99.90
11142;DHT22;5625;50.122;19.864;2024-01-25T04:00:59;5.60;99.90
11142;DHT22;5625;50.122;19.864;2024-01-25T04:03:27;5.60;99.90
11142;DHT22;5625;50.122;19.864;2024-01-25T04:05:58;5.60;99.90
11142;DHT22;5625;50.122;19.864;2024-01-25T04:08:26;5.50;99.90
11142;DHT22;5625;50.122;19.864;2024-01-25T04:10:54;5.50;99.90
11142;DHT22;5625;50.122;19.864;2024-01-25T04:13:23;5.50;99.90
11142;DHT22;5625;50.122;19.864;2024-01-25T04:15:52;5.50;99.90
11142;DHT22;5625;50.122;19.864;2024-01-25T04:18:20;5.50;99.90
11142;DHT22;5625;50.122;19.864;2024-01-25T04:20:48;5.40;99.90
11142;DHT22;5625;50.122;19.864;2024-01-25T04:23:18;5.40;99.90
11142;DHT22;5625;50.122;19.864;2024-01-25T04:25:47;5.40;99.90
11142;DHT22;5625;50.122;19.864;2024-01-25T04:28:15;5.40;99.90
11142;DHT22;5625;50.122;19.864;2024-01-25T04:30:44;5.40;99.90
11142;DHT22;5625;50.122;19.864;2024-01-25T04:33:12;5.40;99.90
11142;DHT22;5625;50.122;19.864;2024-01-25T04:35:40;5.30;99.90
11142;DHT22;5625;50.122;19.864;2024-01-25T04:40:48;5.40;99.90
11142;DHT22;5625;50.122;19.864;2024-01-25T04:41:04;5.40;99.90
11142;DHT22;5625;50.122;19.864;2024-01-25T04:43:45;5.40;99.90
11142;DHT22;5625;50.122;19.864;2024-01-25T04:49:55;5.40;99.90
11142;DHT22;5625;50.122;19.864;2024-01-25T04:55:46;5.50;99.90
11142;DHT22;5625;50.122;19.864;2024-01-25T04:58:18;5.50;99.90
11142;DHT22;5625;50.122;19.864;2024-01-25T05:00:50;5.50;99.90
11142;DHT22;5625;50.122;19.864;2024-01-25T05:03:32;5.60;99.90
11142;DHT22;5625;50.122;19.864;2024-01-25T05:06:00;5.60;90.20
11142;DHT22;5625;50.122;19.864;2024-01-25T05:08:34;5.60;99.90
11142;DHT22;5625;50.122;19.864;2024-01-25T05:11:06;5.60;1.00
11142;DHT22;5625;50.122;19.864;2024-01-25T05:13:37;5.60;1.00
11142;DHT22;5625;50.122;19.864;2024-01-25T05:16:05;5.70;99.90
11142;DHT22;5625;50.122;19.864;2024-01-25T05:18:34;5.60;1.00
11142;DHT22;5625;50.122;19.864;2024-01-25T05:21:02;5.60;1.00
11142;DHT22;5625;50.122;19.864;2024-01-25T05:23:30;5.60;1.00
11142;DHT22;5625;50.122;19.864;2024-01-25T05:25:58;5.60;1.00
11142;DHT22;5625;50.122;19.864;2024-01-25T05:28:26;5.60;19.30
11142;DHT22;5625;50.122;19.864;2024-01-25T05:30:56;5.60;92.10
11142;DHT22;5625;50.122;19.864;2024-01-25T05:33:24;5.60;99.90
11142;DHT22;5625;50.122;19.864;2024-01-25T05:35:52;5.60;99.90
11142;DHT22;5625;50.122;19.864;2024-01-25T05:38:23;5.60;99.90
11142;DHT22;5625;50.122;19.864;2024-01-25T05:40:51;5.60;1.00
11142;DHT22;5625;50.122;19.864;2024-01-25T05:43:19;5.60;1.00
11142;DHT22;5625;50.122;19.864;2024-01-25T05:45:47;5.50;1.00
11142;DHT22;5625;50.122;19.864;2024-01-25T05:48:17;5.50;1.00
11142;DHT22;5625;50.122;19.864;2024-01-25T05:50:46;5.50;1.00
11142;DHT22;5625;50.122;19.864;2024-01-25T05:53:14;5.50;1.00
11142;DHT22;5625;50.122;19.864;2024-01-25T05:55:43;5.50;1.00
11142;DHT22;5625;50.122;19.864;2024-01-25T05:58:11;5.50;1.00
11142;DHT22;5625;50.122;19.864;2024-01-25T06:00:39;5.50;1.00
11142;DHT22;5625;50.122;19.864;2024-01-25T06:03:07;5.50;1.00
11142;DHT22;5625;50.122;19.864;2024-01-25T06:05:37;5.50;1.00
11142;DHT22;5625;50.122;19.864;2024-01-25T06:08:06;5.50;1.00
11142;DHT22;5625;50.122;19.864;2024-01-25T06:10:34;5.50;1.00
11142;DHT22;5625;50.122;19.864;2024-01-25T06:13:03;5.40;1.00
11142;DHT22;5625;50.122;19.864;2024-01-25T06:15:31;5.40;1.00
11142;DHT22;5625;50.122;19.864;2024-01-25T06:17:59;5.40;1.00
11142;DHT22;5625;50.122;19.864;2024-01-25T06:20:27;5.40;6.50
11142;DHT22;5625;50.122;19.864;2024-01-25T06:22:57;5.40;11.40
11142;DHT22;5625;50.122;19.864;2024-01-25T06:25:36;5.40;49.70
11142;DHT22;5625;50.122;19.864;2024-01-25T06:28:07;5.40;90.30
11142;DHT22;5625;50.122;19.864;2024-01-25T06:30:36;5.30;99.90
11142;DHT22;5625;50.122;19.864;2024-01-25T06:33:07;5.30;99.90
11142;DHT22;5625;50.122;19.864;2024-01-25T06:35:36;5.30;99.90
11142;DHT22;5625;50.122;19.864;2024-01-25T06:38:06;5.30;99.90
11142;DHT22;5625;50.122;19.864;2024-01-25T06:40:34;5.30;99.90
11142;DHT22;5625;50.122;19.864;2024-01-25T06:43:02;5.30;99.90
11142;DHT22;5625;50.122;19.864;2024-01-25T06:45:30;5.30;99.90
11142;DHT22;5625;50.122;19.864;2024-01-25T06:47:58;5.20;99.90
11142;DHT22;5625;50.122;19.864;2024-01-25T06:50:27;5.20;99.90
11142;DHT22;5625;50.122;19.864;2024-01-25T06:52:55;5.20;99.90
11142;DHT22;5625;50.122;19.864;2024-01-25T06:55:25;5.20;99.90
11142;DHT22;5625;50.122;19.864;2024-01-25T06:57:53;5.10;99.90
11142;DHT22;5625;50.122;19.864;2024-01-25T07:00:21;5.10;99.90
11142;DHT22;5625;50.122;19.864;2024-01-25T07:02:50;5.10;99.90
11142;DHT22;5625;50.122;19.864;2024-01-25T07:05:19;5.10;99.90
11142;DHT22;5625;50.122;19.864;2024-01-25T07:07:48;5.10;99.90
11142;DHT22;5625;50.122;19.864;2024-01-25T07:10:18;5.10;99.90
11142;DHT22;5625;50.122;19.864;2024-01-25T07:12:51;5.10;99.90
11142;DHT22;5625;50.122;19.864;2024-01-25T07:15:21;5.10;99.90
11142;DHT22;5625;50.122;19.864;2024-01-25T07:17:49;5.00;99.90
11142;DHT22;5625;50.122;19.864;2024-01-25T07:20:17;5.00;99.90
11142;DHT22;5625;50.122;19.864;2024-01-25T07:22:49;5.00;99.90
11142;DHT22;5625;50.122;19.864;2024-01-25T07:25:17;5.00;99.90
11142;DHT22;5625;50.122;19.864;2024-01-25T07:27:46;5.00;99.90
11142;DHT22;5625;50.122;19.864;2024-01-25T07:30:18;5.00;99.90
11142;DHT22;5625;50.122;19.864;2024-01-25T07:32:46;5.00;99.90
11142;DHT22;5625;50.122;19.864;2024-01-25T07:35:14;5.00;99.90
11142;DHT22;5625;50.122;19.864;2024-01-25T07:37:42;5.00;99.90
11142;DHT22;5625;50.122;19.864;2024-01-25T07:40:11;5.00;99.90
11142;DHT22;5625;50.122;19.864;2024-01-25T07:42:38;5.00;99.90
11142;DHT22;5625;50.122;19.864;2024-01-25T07:45:08;5.00;99.90
11142;DHT22;5625;50.122;19.864;2024-01-25T07:47:37;5.00;99.90
11142;DHT22;5625;50.122;19.864;2024-01-25T07:50:06;5.00;99.90
11142;DHT22;5625;50.122;19.864;2024-01-25T07:52:35;5.00;99.90
11142;DHT22;5625;50.122;19.864;2024-01-25T07:55:04;5.00;99.90
11142;DHT22;5625;50.122;19.864;2024-01-25T07:57:32;5.00;99.90
11142;DHT22;5625;50.122;19.864;2024-01-25T08:00:01;5.00;99.90
11142;DHT22;5625;50.122;19.864;2024-01-25T08:02:29;5.00;99.90
11142;DHT22;5625;50.122;19.864;2024-01-25T08:04:59;5.00;99.90
11142;DHT22;5625;50.122;19.864;2024-01-25T08:07:28;5.00;99.90
11142;DHT22;5625;50.122;19.864;2024-01-25T08:09:56;5.00;99.90
11142;DHT22;5625;50.122;19.864;2024-01-25T08:12:26;5.00;99.90
11142;DHT22;5625;50.122;19.864;2024-01-25T08:14:54;5.00;99.90
11142;DHT22;5625;50.122;19.864;2024-01-25T08:17:22;5.00;99.90
11142;DHT22;5625;50.122;19.864;2024-01-25T08:19:50;5.00;99.90
11142;DHT22;5625;50.122;19.864;2024-01-25T08:22:20;5.00;99.90
11142;DHT22;5625;50.122;19.864;2024-01-25T08:24:49;5.00;99.90
11142;DHT22;5625;50.122;19.864;2024-01-25T08:27:17;5.00;99.90
11142;DHT22;5625;50.122;19.864;2024-01-25T08:29:46;5.00;99.90
11142;DHT22;5625;50.122;19.864;2024-01-25T08:32:14;5.00;99.90
11142;DHT22;5625;50.122;19.864;2024-01-25T08:34:42;5.00;99.90
11142;DHT22;5625;50.122;19.864;2024-01-25T08:37:12;5.00;99.90
11142;DHT22;5625;50.122;19.864;2024-01-25T08:39:41;5.00;99.90
11142;DHT22;5625;50.122;19.864;2024-01-25T08:42:10;5.00;99.90
11142;DHT22;5625;50.122;19.864;2024-01-25T08:44:38;5.00;99.90
11142;DHT22;5625;50.122;19.864;2024-01-25T08:47:11;5.00;99.90
11142;DHT22;5625;50.122;19.864;2024-01-25T08:49:39;5.00;99.90
11142;DHT22;5625;50.122;19.864;2024-01-25T08:52:12;5.00;99.90
11142;DHT22;5625;50.122;19.864;2024-01-25T08:54:43;5.00;99.90
11142;DHT22;5625;50.122;19.864;2024-01-25T08:57:11;5.00;99.90
11142;DHT22;5625;50.122;19.864;2024-01-25T08:59:41;5.10;99.90
11142;DHT22;5625;50.122;19.864;2024-01-25T09:02:10;5.10;99.90
11142;DHT22;5625;50.122;19.864;2024-01-25T09:04:38;5.10;99.90
11142;DHT22;5625;50.122;19.864;2024-01-25T09:07:09;5.20;99.90
11142;DHT22;5625;50.122;19.864;2024-01-25T09:09:38;5.20;99.90
11142;DHT22;5625;50.122;19.864;2024-01-25T09:12:11;5.20;99.90
11142;DHT22;5625;50.122;19.864;2024-01-25T09:14:43;5.20;99.90
11142;DHT22;5625;50.122;19.864;2024-01-25T09:17:11;5.30;99.90
11142;DHT22;5625;50.122;19.864;2024-01-25T09:19:41;5.30;99.90
11142;DHT22;5625;50.122;19.864;2024-01-25T09:22:09;5.30;99.90
11142;DHT22;5625;50.122;19.864;2024-01-25T09:24:38;5.30;99.90
11142;DHT22;5625;50.122;19.864;2024-01-25T09:27:07;5.30;99.90
11142;DHT22;5625;50.122;19.864;2024-01-25T09:29:37;5.40;99.90
11142;DHT22;5625;50.122;19.864;2024-01-25T09:32:08;5.40;99.90
11142;DHT22;5625;50.122;19.864;2024-01-25T09:34:37;5.40;99.90
11142;DHT22;5625;50.122;19.864;2024-01-25T09:37:07;5.40;99.90
11142;DHT22;5625;50.122;19.864;2024-01-25T09:39:35;5.40;99.90
11142;DHT22;5625;50.122;19.864;2024-01-25T09:42:04;5.40;99.90
11142;DHT22;5625;50.122;19.864;2024-01-25T09:44:33;5.40;99.90
11142;DHT22;5625;50.122;19.864;2024-01-25T09:47:05;5.40;99.90
11142;DHT22;5625;50.122;19.864;2024-01-25T09:49:34;5.40;99.90
11142;DHT22;5625;50.122;19.864;2024-01-25T09:52:04;5.50;99.90
11142;DHT22;5625;50.122;19.864;2024-01-25T09:54:34;5.50;99.90
11142;DHT22;5625;50.122;19.864;2024-01-25T09:57:05;5.50;99.90
11142;DHT22;5625;50.122;19.864;2024-01-25T09:59:34;5.60;99.90
11142;DHT22;5625;50.122;19.864;2024-01-25T10:02:04;5.60;99.90
11142;DHT22;5625;50.122;19.864;2024-01-25T10:04:32;5.60;99.90
11142;DHT22;5625;50.122;19.864;2024-01-25T10:07:01;5.60;99.90
11142;DHT22;5625;50.122;19.864;2024-01-25T10:09:38;5.70;99.90
11142;DHT22;5625;50.122;19.864;2024-01-25T10:12:07;5.70;99.90
11142;DHT22;5625;50.122;19.864;2024-01-25T10:14:44;5.70;99.90
11142;DHT22;5625;50.122;19.864;2024-01-25T10:17:14;5.70;99.90
11142;DHT22;5625;50.122;19.864;2024-01-25T10:19:43;5.70;99.90
11142;DHT22;5625;50.122;19.864;2024-01-25T10:22:12;5.80;99.90
11142;DHT22;5625;50.122;19.864;2024-01-25T10:24:42;5.90;98.00
11142;DHT22;5625;50.122;19.864;2024-01-25T10:27:11;5.90;90.10
11142;DHT22;5625;50.122;19.864;2024-01-25T10:29:40;5.90;86.50
11142;DHT22;5625;50.122;19.864;2024-01-25T10:32:08;5.90;74.50
11142;DHT22;5625;50.122;19.864;2024-01-25T10:34:38;6.00;53.60
11142;DHT22;5625;50.122;19.864;2024-01-25T10:37:07;6.00;22.80
11142;DHT22;5625;50.122;19.864;2024-01-25T10:39:36;6.00;8.30
11142;DHT22;5625;50.122;19.864;2024-01-25T10:42:05;6.00;1.10
11142;DHT22;5625;50.122;19.864;2024-01-25T10:44:33;6.00;1.00
11142;DHT22;5625;50.122;19.864;2024-01-25T10:47:01;6.10;1.00
11142;DHT22;5625;50.122;19.864;2024-01-25T10:49:30;6.10;1.00
11142;DHT22;5625;50.122;19.864;2024-01-25T10:52:01;6.20;1.00
11142;DHT22;5625;50.122;19.864;2024-01-25T10:54:30;6.20;1.00
11142;DHT22;5625;50.122;19.864;2024-01-25T10:56:58;6.20;1.00
11142;DHT22;5625;50.122;19.864;2024-01-25T10:59:28;6.20;1.00
11142;DHT22;5625;50.122;19.864;2024-01-25T11:01:57;6.30;1.00
11142;DHT22;5625;50.122;19.864;2024-01-25T11:04:26;6.30;1.00
11142;DHT22;5625;50.122;19.864;2024-01-25T11:07:06;6.20;1.00
11142;DHT22;5625;50.122;19.864;2024-01-25T11:09:35;6.20;1.00
11142;DHT22;5625;50.122;19.864;2024-01-25T11:12:11;6.20;1.00
11142;DHT22;5625;50.122;19.864;2024-01-25T11:14:40;6.20;1.00
11142;DHT22;5625;50.122;19.864;2024-01-25T11:17:15;6.20;1.00
11142;DHT22;5625;50.122;19.864;2024-01-25T11:19:47;6.20;1.00
11142;DHT22;5625;50.122;19.864;2024-01-25T11:22:17;6.20;1.00
11142;DHT22;5625;50.122;19.864;2024-01-25T11:24:47;6.20;1.00
11142;DHT22;5625;50.122;19.864;2024-01-25T11:27:15;6.20;1.00
11142;DHT22;5625;50.122;19.864;2024-01-25T11:29:43;6.30;1.00
11142;DHT22;5625;50.122;19.864;2024-01-25T11:32:12;6.30;1.00
11142;DHT22;5625;50.122;19.864;2024-01-25T11:34:40;6.40;1.00
11142;DHT22;5625;50.122;19.864;2024-01-25T11:37:10;6.40;1.00
11142;DHT22;5625;50.122;19.864;2024-01-25T11:39:40;6.40;1.00
11142;DHT22;5625;50.122;19.864;2024-01-25T11:42:08;6.40;1.00
11142;DHT22;5625;50.122;19.864;2024-01-25T11:44:36;6.40;1.00
11142;DHT22;5625;50.122;19.864;2024-01-25T11:47:05;6.50;1.00
11142;DHT22;5625;50.122;19.864;2024-01-25T11:49:35;6.50;1.00
11142;DHT22;5625;50.122;19.864;2024-01-25T11:52:03;6.50;1.00
11142;DHT22;5625;50.122;19.864;2024-01-25T11:54:32;6.50;1.00
11142;DHT22;5625;50.122;19.864;2024-01-25T11:57:02;6.50;1.00
11142;DHT22;5625;50.122;19.864;2024-01-25T11:59:30;6.60;1.00
11142;DHT22;5625;50.122;19.864;2024-01-25T12:01:58;6.50;1.00
11142;DHT22;5625;50.122;19.864;2024-01-25T12:04:26;6.50;1.00
11142;DHT22;5625;50.122;19.864;2024-01-25T12:06:55;6.50;1.00
11142;DHT22;5625;50.122;19.864;2024-01-25T12:09:23;6.40;1.00
11142;DHT22;5625;50.122;19.864;2024-01-25T12:11:53;6.50;1.00
11142;DHT22;5625;50.122;19.864;2024-01-25T12:14:23;6.50;1.00
11142;DHT22;5625;50.122;19.864;2024-01-25T12:16:52;6.40;1.00
11142;DHT22;5625;50.122;19.864;2024-01-25T12:19:20;6.40;1.00
11142;DHT22;5625;50.122;19.864;2024-01-25T12:21:49;6.40;1.00
11142;DHT22;5625;50.122;19.864;2024-01-25T12:24:19;6.40;1.00
11142;DHT22;5625;50.122;19.864;2024-01-25T12:26:49;6.40;1.00
11142;DHT22;5625;50.122;19.864;2024-01-25T12:29:17;6.40;1.00
11142;DHT22;5625;50.122;19.864;2024-01-25T12:31:46;6.40;1.00
11142;DHT22;5625;50.122;19.864;2024-01-25T12:34:15;6.40;1.00
11142;DHT22;5625;50.122;19.864;2024-01-25T12:36:43;6.40;1.00
11142;DHT22;5625;50.122;19.864;2024-01-25T12:39:12;6.40;1.00
11142;DHT22;5625;50.122;19.864;2024-01-25T12:41:45;6.40;1.00
11142;DHT22;5625;50.122;19.864;2024-01-25T12:44:14;6.40;1.00
11142;DHT22;5625;50.122;19.864;2024-01-25T12:46:42;6.40;1.00
11142;DHT22;5625;50.122;19.864;2024-01-25T12:49:12;6.40;1.00
11142;DHT22;5625;50.122;19.864;2024-01-25T12:51:41;6.40;1.00
11142;DHT22;5625;50.122;19.864;2024-01-25T12:54:09;6.40;1.00
11142;DHT22;5625;50.122;19.864;2024-01-25T12:56:38;6.40;1.00
11142;DHT22;5625;50.122;19.864;2024-01-25T12:59:07;6.40;1.00
11142;DHT22;5625;50.122;19.864;2024-01-25T13:01:36;6.40;1.00
11142;DHT22;5625;50.122;19.864;2024-01-25T13:04:05;6.40;1.00
11142;DHT22;5625;50.122;19.864;2024-01-25T13:06:35;6.40;1.00
11142;DHT22;5625;50.122;19.864;2024-01-25T13:09:03;6.50;1.00
11142;DHT22;5625;50.122;19.864;2024-01-25T13:11:31;6.50;1.00
11142;DHT22;5625;50.122;19.864;2024-01-25T13:13:59;6.50;1.00
11142;DHT22;5625;50.122;19.864;2024-01-25T13:16:27;6.50;1.00
11142;DHT22;5625;50.122;19.864;2024-01-25T13:18:56;6.50;1.00
11142;DHT22;5625;50.122;19.864;2024-01-25T13:21:24;6.50;1.00
11142;DHT22;5625;50.122;19.864;2024-01-25T13:23:53;6.50;1.00
11142;DHT22;5625;50.122;19.864;2024-01-25T13:26:22;6.40;1.00
11142;DHT22;5625;50.122;19.864;2024-01-25T13:28:50;6.40;1.00
11142;DHT22;5625;50.122;19.864;2024-01-25T13:31:19;6.50;1.00
11142;DHT22;5625;50.122;19.864;2024-01-25T13:33:49;6.50;1.00
11142;DHT22;5625;50.122;19.864;2024-01-25T13:36:17;6.40;1.00
11142;DHT22;5625;50.122;19.864;2024-01-25T13:38:46;6.40;1.00
11142;DHT22;5625;50.122;19.864;2024-01-25T13:41:15;6.40;1.00
11142;DHT22;5625;50.122;19.864;2024-01-25T13:43:43;6.40;1.00
11142;DHT22;5625;50.122;19.864;2024-01-25T13:46:12;6.30;1.00
11142;DHT22;5625;50.122;19.864;2024-01-25T13:48:40;6.30;1.00
11142;DHT22;5625;50.122;19.864;2024-01-25T13:51:08;6.30;1.00
11142;DHT22;5625;50.122;19.864;2024-01-25T13:53:36;6.30;1.00
11142;DHT22;5625;50.122;19.864;2024-01-25T13:56:04;6.30;1.00
11142;DHT22;5625;50.122;19.864;2024-01-25T13:58:34;6.20;1.00
11142;DHT22;5625;50.122;19.864;2024-01-25T14:01:02;6.20;1.00
11142;DHT22;5625;50.122;19.864;2024-01-25T14:03:32;6.20;1.00
11142;DHT22;5625;50.122;19.864;2024-01-25T14:06:01;6.20;1.00
11142;DHT22;5625;50.122;19.864;2024-01-25T14:08:32;6.20;1.00
11142;DHT22;5625;50.122;19.864;2024-01-25T14:11:01;6.20;1.00
11142;DHT22;5625;50.122;19.864;2024-01-25T14:13:30;6.20;1.00
11142;DHT22;5625;50.122;19.864;2024-01-25T14:15:59;6.10;1.00
11142;DHT22;5625;50.122;19.864;2024-01-25T14:18:28;6.10;1.00
11142;DHT22;5625;50.122;19.864;2024-01-25T14:20:57;6.10;1.00
11142;DHT22;5625;50.122;19.864;2024-01-25T14:23:25;6.10;1.00
11142;DHT22;5625;50.122;19.864;2024-01-25T14:25:55;6.10;1.00
11142;DHT22;5625;50.122;19.864;2024-01-25T14:28:24;6.10;1.00
11142;DHT22;5625;50.122;19.864;2024-01-25T14:30:52;6.00;1.00
11142;DHT22;5625;50.122;19.864;2024-01-25T14:33:25;6.00;1.00
11142;DHT22;5625;50.122;19.864;2024-01-25T14:35:53;5.90;1.00
11142;DHT22;5625;50.122;19.864;2024-01-25T14:38:21;5.90;9.30
11142;DHT22;5625;50.122;19.864;2024-01-25T14:40:49;5.90;4.00
11142;DHT22;5625;50.122;19.864;2024-01-25T14:43:26;5.90;9.30
11142;DHT22;5625;50.122;19.864;2024-01-25T14:45:54;5.90;1.00
11142;DHT22;5625;50.122;19.864;2024-01-25T14:48:22;5.90;1.00
11142;DHT22;5625;50.122;19.864;2024-01-25T14:50:52;5.90;1.00
11142;DHT22;5625;50.122;19.864;2024-01-25T14:53:20;5.80;1.00
11142;DHT22;5625;50.122;19.864;2024-01-25T14:55:48;5.80;1.00
11142;DHT22;5625;50.122;19.864;2024-01-25T14:58:17;5.80;1.00
11142;DHT22;5625;50.122;19.864;2024-01-25T15:00:50;5.80;1.00
11142;DHT22;5625;50.122;19.864;2024-01-25T15:03:19;5.80;1.00
11142;DHT22;5625;50.122;19.864;2024-01-25T15:05:47;5.80;4.70
11142;DHT22;5625;50.122;19.864;2024-01-25T15:08:17;5.80;22.00
11142;DHT22;5625;50.122;19.864;2024-01-25T15:10:45;5.80;21.30
11142;DHT22;5625;50.122;19.864;2024-01-25T15:13:13;5.70;11.50
11142;DHT22;5625;50.122;19.864;2024-01-25T15:15:41;5.70;2.60
11142;DHT22;5625;50.122;19.864;2024-01-25T15:18:11;5.70;8.90
11142;DHT22;5625;50.122;19.864;2024-01-25T15:20:39;5.70;10.00
11142;DHT22;5625;50.122;19.864;2024-01-25T15:23:07;5.70;12.50
11142;DHT22;5625;50.122;19.864;2024-01-25T15:25:37;5.70;12.90
11142;DHT22;5625;50.122;19.864;2024-01-25T15:28:05;5.70;18.40
11142;DHT22;5625;50.122;19.864;2024-01-25T15:30:34;5.70;23.50
11142;DHT22;5625;50.122;19.864;2024-01-25T15:33:03;5.60;25.50
11142;DHT22;5625;50.122;19.864;2024-01-25T15:35:32;5.70;39.00
11142;DHT22;5625;50.122;19.864;2024-01-25T15:38:00;5.60;53.20
11142;DHT22;5625;50.122;19.864;2024-01-25T15:40:32;5.70;67.70
11142;DHT22;5625;50.122;19.864;2024-01-25T15:43:02;5.60;72.10
11142;DHT22;5625;50.122;19.864;2024-01-25T15:45:30;5.60;78.10
11142;DHT22;5625;50.122;19.864;2024-01-25T15:47:59;5.60;89.50
11142;DHT22;5625;50.122;19.864;2024-01-25T15:50:27;5.60;96.40
11142;DHT22;5625;50.122;19.864;2024-01-25T15:52:55;5.60;89.40
11142;DHT22;5625;50.122;19.864;2024-01-25T15:55:23;5.60;86.20
11142;DHT22;5625;50.122;19.864;2024-01-25T15:57:51;5.60;66.70
11142;DHT22;5625;50.122;19.864;2024-01-25T16:00:21;5.60;43.00
11142;DHT22;5625;50.122;19.864;2024-01-25T16:02:49;5.60;26.40
11142;DHT22;5625;50.122;19.864;2024-01-25T16:05:18;5.60;19.50
11142;DHT22;5625;50.122;19.864;2024-01-25T16:07:46;5.60;17.30
11142;DHT22;5625;50.122;19.864;2024-01-25T16:10:16;5.60;22.00
11142;DHT22;5625;50.122;19.864;2024-01-25T16:12:45;5.60;18.10